createdAt,value
2022-12-05T00:02:25.537Z,20.33
2022-12-05T00:04:59.614Z,20.38
2022-12-05T00:07:29.863Z,20.38
2022-12-05T00:10:00.949Z,19.17
2022-12-05T00:12:33.519Z,19.63
2022-12-05T00:15:19.966Z,19.80
2022-12-05T00:18:07.543Z,19.70
2022-12-05T00:23:20.510Z,18.85
2022-12-05T00:25:52.398Z,20.27
2022-12-05T00:28:25.933Z,21.27
2022-12-05T00:30:54.851Z,21.50
2022-12-05T00:33:35.037Z,20.77
2022-12-05T00:36:10.705Z,19.55
2022-12-05T00:38:39.619Z,21.15
2022-12-05T00:41:09.188Z,20.00
2022-12-05T00:43:57.201Z,19.33
2022-12-05T00:46:45.510Z,22.08
2022-12-05T00:49:28.308Z,20.30
2022-12-05T00:52:15.956Z,21.63
2022-12-05T00:54:49.957Z,20.33
2022-12-05T00:57:21.220Z,20.35
2022-12-05T00:59:50.233Z,20.58
2022-12-05T01:02:21.731Z,21.30
2022-12-05T01:04:51.752Z,20.85
2022-12-05T01:09:57.072Z,20.27
2022-12-05T01:12:28.061Z,18.77
2022-12-05T01:15:15.545Z,19.52
2022-12-05T01:18:01.162Z,18.73
2022-12-05T01:20:49.050Z,21.00
2022-12-05T01:23:35.871Z,20.40
2022-12-05T01:26:06.953Z,21.23
2022-12-05T01:28:35.974Z,21.77
2022-12-05T01:31:06.393Z,19.08
2022-12-05T01:33:39.598Z,21.08
2022-12-05T01:36:28.135Z,21.27
2022-12-05T01:39:14.556Z,20.73
2022-12-05T01:42:02.190Z,20.38
2022-12-05T01:44:49.705Z,19.65
2022-12-05T01:47:37.826Z,19.20
2022-12-05T01:50:09.780Z,21.38
2022-12-05T01:52:53.428Z,20.42
2022-12-05T01:55:25.236Z,19.75
2022-12-05T01:58:09.352Z,21.55
2022-12-05T02:00:40.154Z,19.77
2022-12-05T02:03:22.129Z,22.48
2022-12-05T02:05:52.541Z,21.25
2022-12-05T02:08:21.414Z,19.08
2022-12-05T02:10:52.564Z,19.38
2022-12-05T02:13:32.007Z,20.90
2022-12-05T02:16:19.598Z,19.92
2022-12-05T02:18:53.597Z,20.00
2022-12-05T02:21:24.164Z,19.65
2022-12-05T02:23:52.121Z,18.40
2022-12-05T02:26:30.078Z,20.20
2022-12-05T02:29:16.511Z,19.92
2022-12-05T02:31:56.393Z,19.48
2022-12-05T02:34:39.594Z,19.23
2022-12-05T02:37:14.635Z,19.13
2022-12-05T02:39:42.885Z,19.20
2022-12-05T02:42:16.073Z,18.33
2022-12-05T02:44:58.821Z,19.77
2022-12-05T02:47:31.838Z,19.38
2022-12-05T02:50:04.045Z,18.98
2022-12-05T02:52:35.441Z,21.23
2022-12-05T02:55:04.729Z,21.42
2022-12-05T02:57:37.713Z,19.48
2022-12-05T03:00:08.799Z,19.73
2022-12-05T03:02:59.409Z,18.83
2022-12-05T03:05:41.798Z,18.45
2022-12-05T03:08:14.175Z,20.67
2022-12-05T03:10:43.615Z,20.00
2022-12-05T03:13:17.132Z,20.10
2022-12-05T03:15:49.045Z,18.98
2022-12-05T03:18:25.143Z,18.17
2022-12-05T03:21:00.433Z,19.85
2022-12-05T03:23:35.425Z,19.73
2022-12-05T03:26:14.336Z,19.75
2022-12-05T03:28:53.249Z,20.02
2022-12-05T03:31:33.527Z,20.33
2022-12-05T03:34:04.356Z,21.55
2022-12-05T03:36:45.037Z,21.05
2022-12-05T03:39:19.592Z,20.23
2022-12-05T03:42:13.292Z,22.15
2022-12-05T03:45:17.743Z,21.05
2022-12-05T03:48:14.537Z,18.80
2022-12-05T03:50:54.992Z,21.42
2022-12-05T03:53:38.977Z,19.77
2022-12-05T03:56:23.498Z,20.25
2022-12-05T03:59:11.769Z,19.88
2022-12-05T04:01:55.785Z,22.02
2022-12-05T04:04:36.005Z,21.15
2022-12-05T04:07:16.362Z,21.33
2022-12-05T04:09:51.834Z,20.27
2022-12-05T04:12:24.369Z,21.80
2022-12-05T04:15:04.592Z,21.85
2022-12-05T04:17:58.574Z,19.92
2022-12-05T04:21:06.423Z,21.85
2022-12-05T04:24:07.963Z,21.52
2022-12-05T04:26:44.096Z,19.38
2022-12-05T04:29:31.850Z,23.08
2022-12-05T04:32:24.550Z,22.15
2022-12-05T04:35:08.291Z,22.13
2022-12-05T04:37:52.071Z,19.73
2022-12-05T04:40:25.981Z,21.20
2022-12-05T04:42:57.113Z,20.88
2022-12-05T04:45:26.890Z,22.80
2022-12-05T04:48:01.128Z,20.88
2022-12-05T04:50:34.110Z,22.80
2022-12-05T04:53:03.711Z,21.50
2022-12-05T04:55:34.848Z,21.92
2022-12-05T04:58:15.003Z,19.10
2022-12-05T05:01:18.403Z,22.58
2022-12-05T05:03:56.658Z,20.58
2022-12-05T05:06:28.435Z,18.98
2022-12-05T05:09:03.827Z,20.67
2022-12-05T05:11:51.480Z,19.20
2022-12-05T05:14:41.862Z,18.73
2022-12-05T05:17:24.758Z,19.75
2022-12-05T05:20:16.870Z,20.58
2022-12-05T05:22:53.017Z,19.33
2022-12-05T05:25:22.214Z,18.90
2022-12-05T05:27:54.664Z,18.70
2022-12-05T05:30:29.245Z,19.52
2022-12-05T05:33:15.630Z,18.90
2022-12-05T05:35:43.966Z,17.88
2022-12-05T05:38:12.484Z,19.02
2022-12-05T05:40:41.498Z,18.48
2022-12-05T05:43:10.055Z,17.42
2022-12-05T05:45:39.739Z,18.45
2022-12-05T05:48:09.143Z,18.85
2022-12-05T05:50:41.058Z,19.55
2022-12-05T05:53:31.918Z,16.55
2022-12-05T05:56:21.707Z,17.85
2022-12-05T05:59:10.416Z,18.58
2022-12-05T06:01:57.973Z,18.80
2022-12-05T06:04:45.641Z,20.13
2022-12-05T06:07:33.327Z,18.20
2022-12-05T06:10:17.117Z,18.45
2022-12-05T06:13:01.801Z,18.08
2022-12-05T06:15:34.835Z,18.80
2022-12-05T06:18:03.242Z,18.23
2022-12-05T06:20:33.049Z,18.88
2022-12-05T06:23:01.472Z,18.95
2022-12-05T06:25:30.966Z,18.35
2022-12-05T06:28:00.313Z,18.10
2022-12-05T06:30:29.111Z,18.20
2022-12-05T06:33:15.008Z,17.65
2022-12-05T06:35:44.268Z,17.63
2022-12-05T06:38:31.674Z,17.35
2022-12-05T06:41:09.623Z,18.85
2022-12-05T06:44:01.650Z,18.38
2022-12-05T06:46:50.060Z,17.45
2022-12-05T06:49:19.165Z,17.80
2022-12-05T06:52:05.418Z,17.90
2022-12-05T06:54:48.722Z,17.45
2022-12-05T06:57:34.747Z,15.00
2022-12-05T07:00:29.160Z,17.45
2022-12-05T07:03:18.947Z,17.58
2022-12-05T07:06:03.908Z,18.25
2022-12-05T07:08:51.640Z,17.17
2022-12-05T07:11:22.390Z,17.63
2022-12-05T07:14:14.865Z,17.08
2022-12-05T07:16:58.958Z,17.65
2022-12-05T07:19:48.473Z,18.88
2022-12-05T07:22:18.045Z,19.17
2022-12-05T07:24:49.123Z,17.95
2022-12-05T07:27:23.330Z,17.35
2022-12-05T07:29:55.363Z,18.73
2022-12-05T07:32:26.274Z,17.00
2022-12-05T07:34:56.347Z,17.17
2022-12-05T07:37:26.296Z,17.42
2022-12-05T07:40:00.488Z,16.80
2022-12-05T07:42:53.421Z,18.23
2022-12-05T07:45:41.080Z,19.70
2022-12-05T07:48:21.202Z,17.52
2022-12-05T07:51:02.424Z,18.58
2022-12-05T07:53:41.527Z,19.20
2022-12-05T07:56:10.344Z,18.67
2022-12-05T07:58:39.406Z,18.17
2022-12-05T08:01:15.834Z,18.95
2022-12-05T08:04:03.548Z,17.73
2022-12-05T08:06:34.948Z,17.70
2022-12-05T08:09:03.621Z,18.13
2022-12-05T08:11:36.016Z,19.73
2022-12-05T08:14:24.007Z,19.80
2022-12-05T08:17:13.679Z,19.40
2022-12-05T08:20:02.302Z,19.30
2022-12-05T08:22:52.673Z,20.35
2022-12-05T08:25:24.634Z,20.90
2022-12-05T08:27:55.333Z,19.67
2022-12-05T08:30:24.705Z,18.67
2022-12-05T08:33:12.575Z,19.83
2022-12-05T08:35:40.993Z,19.52
2022-12-05T08:38:09.555Z,20.70
2022-12-05T08:40:43.595Z,20.38
2022-12-05T08:43:12.579Z,19.38
2022-12-05T08:45:41.140Z,21.08
2022-12-05T08:48:11.023Z,19.27
2022-12-05T08:50:40.916Z,20.13
2022-12-05T08:53:14.091Z,19.50
2022-12-05T08:55:43.204Z,21.15
2022-12-05T08:58:33.333Z,20.02
2022-12-05T09:01:26.123Z,21.05
2022-12-05T09:04:16.307Z,21.08
2022-12-05T09:07:02.973Z,20.27
2022-12-05T09:09:46.178Z,20.23
2022-12-05T09:12:33.976Z,21.15
2022-12-05T09:15:17.099Z,14.40
2022-12-05T09:18:06.244Z,19.70
2022-12-05T09:20:53.842Z,21.88
2022-12-05T09:23:41.995Z,19.80
2022-12-05T09:26:30.955Z,20.98
2022-12-05T09:29:19.656Z,20.05
2022-12-05T09:32:07.506Z,20.88
2022-12-05T09:34:55.512Z,21.05
2022-12-05T09:37:45.440Z,18.48
2022-12-05T09:40:33.250Z,18.42
2022-12-05T09:43:33.105Z,20.00
2022-12-05T09:46:35.521Z,18.88
2022-12-05T09:49:11.874Z,19.30
2022-12-05T09:51:44.466Z,19.27
2022-12-05T09:54:13.904Z,24.65
2022-12-05T09:56:45.232Z,22.85
2022-12-05T09:59:15.785Z,19.70
2022-12-05T10:02:07.690Z,19.00
2022-12-05T10:04:58.602Z,18.25
2022-12-05T10:07:46.883Z,19.02
2022-12-05T10:10:21.159Z,17.85
2022-12-05T10:12:52.422Z,17.23
2022-12-05T10:15:33.072Z,18.38
2022-12-05T10:18:06.031Z,18.30
2022-12-05T10:21:13.252Z,18.98
2022-12-05T10:24:01.650Z,18.02
2022-12-05T10:26:38.129Z,17.20
2022-12-05T10:29:23.234Z,18.35
2022-12-05T10:31:55.603Z,17.42
2022-12-05T10:34:40.552Z,17.08
2022-12-05T10:37:17.235Z,18.58
2022-12-05T10:39:46.778Z,17.13
2022-12-05T10:42:20.856Z,17.58
2022-12-05T10:44:56.612Z,17.70
2022-12-05T10:47:26.018Z,16.05
2022-12-05T10:49:56.889Z,16.92
2022-12-05T10:52:31.291Z,15.80
2022-12-05T10:55:03.974Z,17.10
2022-12-05T10:58:12.683Z,16.85
2022-12-05T11:01:07.890Z,16.00
2022-12-05T11:03:57.417Z,16.60
2022-12-05T11:06:51.263Z,17.15
2022-12-05T11:09:24.138Z,16.50
2022-12-05T11:12:04.650Z,17.33
2022-12-05T11:14:34.531Z,16.60
2022-12-05T11:17:04.817Z,16.65
2022-12-05T11:19:42.468Z,17.83
2022-12-05T11:22:34.207Z,17.38
2022-12-05T11:25:32.013Z,15.65
2022-12-05T11:28:18.055Z,17.30
2022-12-05T11:31:08.611Z,16.65
2022-12-05T11:33:37.555Z,16.27
2022-12-05T11:36:23.158Z,15.68
2022-12-05T11:38:52.319Z,15.95
2022-12-05T11:41:50.025Z,18.10
2022-12-05T11:44:46.809Z,16.27
2022-12-05T11:47:23.665Z,16.95
2022-12-05T11:49:56.987Z,17.20
2022-12-05T11:52:27.858Z,15.60
2022-12-05T11:55:11.666Z,16.35
2022-12-05T11:57:53.958Z,17.70
2022-12-05T12:00:36.004Z,17.23
2022-12-05T12:03:20.518Z,20.58
2022-12-05T12:06:27.788Z,16.73
2022-12-05T12:09:10.805Z,16.05
2022-12-05T12:11:55.932Z,16.75
2022-12-05T12:14:30.788Z,16.58
2022-12-05T12:17:01.953Z,16.50
2022-12-05T12:20:05.209Z,17.30
2022-12-05T12:22:39.555Z,15.98
2022-12-05T12:25:30.997Z,17.50
2022-12-05T12:28:06.231Z,16.52
2022-12-05T12:30:53.110Z,18.40
2022-12-05T12:33:39.980Z,17.77
2022-12-05T12:36:13.293Z,17.98
2022-12-05T12:38:41.530Z,18.58
2022-12-05T12:41:09.586Z,17.50
2022-12-05T12:43:56.035Z,16.55
2022-12-05T12:46:27.213Z,18.27
2022-12-05T12:49:09.149Z,16.88
2022-12-05T12:51:42.130Z,17.67
2022-12-05T12:54:25.331Z,15.60
2022-12-05T12:57:14.652Z,16.73
2022-12-05T13:00:16.721Z,16.08
2022-12-05T13:03:19.054Z,16.55
2022-12-05T13:06:00.001Z,17.45
2022-12-05T13:08:32.611Z,25.30
2022-12-05T13:11:02.136Z,19.02
2022-12-05T13:13:43.966Z,16.42
2022-12-05T13:16:17.318Z,16.33
2022-12-05T13:18:47.262Z,15.25
2022-12-05T13:21:37.436Z,15.23
2022-12-05T13:24:28.431Z,35.80
2022-12-05T13:27:17.735Z,19.92
2022-12-05T13:29:57.284Z,16.85
2022-12-05T13:32:26.552Z,15.38
2022-12-05T13:34:58.463Z,14.98
2022-12-05T13:37:45.995Z,16.75
2022-12-05T13:40:50.163Z,16.30
2022-12-05T13:43:30.040Z,14.90
2022-12-05T13:46:13.815Z,15.48
2022-12-05T13:48:51.115Z,15.63
2022-12-05T13:51:42.733Z,14.60
2022-12-05T13:54:25.827Z,12.38
2022-12-05T13:57:32.240Z,15.98
2022-12-05T14:00:10.614Z,17.05
2022-12-05T14:03:04.780Z,16.00
2022-12-05T14:05:44.004Z,15.70
2022-12-05T14:08:27.545Z,16.48
2022-12-05T14:10:55.659Z,15.82
2022-12-05T14:13:25.474Z,14.55
2022-12-05T14:15:56.221Z,15.48
2022-12-05T14:18:27.674Z,14.73
2022-12-05T14:20:58.500Z,24.02
2022-12-05T14:23:50.117Z,16.80
2022-12-05T14:26:20.377Z,15.95
2022-12-05T14:28:48.480Z,17.50
2022-12-05T14:31:38.259Z,17.10
2022-12-05T14:34:16.313Z,15.70
2022-12-05T14:37:02.333Z,15.55
2022-12-05T14:39:46.010Z,14.80
2022-12-05T14:42:28.297Z,16.30
2022-12-05T14:45:01.692Z,15.82
2022-12-05T14:47:35.191Z,15.18
2022-12-05T14:50:17.889Z,14.30
2022-12-05T14:52:47.035Z,15.70
2022-12-05T14:55:30.155Z,15.90
2022-12-05T14:58:31.177Z,14.90
2022-12-05T15:01:15.555Z,15.98
2022-12-05T15:04:05.559Z,17.10
2022-12-05T15:06:43.825Z,15.02
2022-12-05T15:09:37.924Z,16.08
2022-12-05T15:12:19.395Z,15.93
2022-12-05T15:14:51.129Z,15.35
2022-12-05T15:17:42.104Z,14.88
2022-12-05T15:20:45.135Z,14.90
2022-12-05T15:23:46.195Z,15.57
2022-12-05T15:26:48.554Z,15.73
2022-12-05T15:29:33.614Z,15.32
2022-12-05T15:32:22.367Z,17.25
2022-12-05T15:35:02.003Z,19.33
2022-12-05T15:37:53.850Z,16.42
2022-12-05T15:40:37.891Z,16.65
2022-12-05T15:43:28.168Z,15.50
2022-12-05T15:46:25.013Z,13.30
2022-12-05T15:49:17.034Z,13.88
2022-12-05T15:51:57.045Z,15.90
2022-12-05T15:54:39.707Z,15.93
2022-12-05T15:57:28.433Z,16.08
2022-12-05T16:00:07.300Z,16.77
2022-12-05T16:03:00.756Z,17.85
2022-12-05T16:05:39.225Z,19.42
2022-12-05T16:08:13.588Z,23.63
2022-12-05T16:10:44.454Z,20.58
2022-12-05T16:13:27.475Z,16.15
2022-12-05T16:16:06.524Z,17.08
2022-12-05T16:18:57.446Z,17.17
2022-12-05T16:21:49.074Z,17.23
2022-12-05T16:24:22.801Z,16.65
2022-12-05T16:26:59.849Z,16.17
2022-12-05T16:29:29.789Z,15.88
2022-12-05T16:31:59.098Z,16.83
2022-12-05T16:34:28.897Z,16.95
2022-12-05T16:36:57.760Z,15.73
2022-12-05T16:39:30.132Z,16.38
2022-12-05T16:41:58.559Z,15.98
2022-12-05T16:44:26.625Z,16.20
2022-12-05T16:46:56.411Z,16.33
2022-12-05T16:49:37.016Z,22.10
2022-12-05T16:52:08.531Z,27.13
2022-12-05T16:54:36.950Z,19.73
2022-12-05T16:57:19.317Z,19.85
2022-12-05T17:00:08.126Z,19.73
2022-12-05T17:03:25.907Z,16.75
2022-12-05T17:06:05.725Z,15.35
2022-12-05T17:08:54.101Z,19.67
2022-12-05T17:11:45.862Z,19.73
2022-12-05T17:14:33.601Z,19.77
2022-12-05T17:17:25.965Z,19.25
2022-12-05T17:19:54.743Z,19.52
2022-12-05T17:22:44.882Z,16.15
2022-12-05T17:25:23.024Z,18.40
2022-12-05T17:28:04.723Z,26.17
2022-12-05T17:30:35.413Z,22.42
2022-12-05T17:33:19.543Z,19.00
2022-12-05T17:35:50.947Z,19.83
2022-12-05T17:38:19.621Z,16.48
2022-12-05T17:40:48.322Z,17.17
2022-12-05T17:43:24.698Z,16.17
2022-12-05T17:45:54.749Z,18.40
2022-12-05T17:48:26.450Z,19.08
2022-12-05T17:50:57.757Z,17.65
2022-12-05T17:53:26.098Z,16.08
2022-12-05T17:55:57.137Z,15.95
2022-12-05T17:58:25.721Z,18.42
2022-12-05T18:00:56.617Z,16.80
2022-12-05T18:03:46.999Z,17.33
2022-12-05T18:06:34.592Z,14.77
2022-12-05T18:09:23.922Z,16.30
2022-12-05T18:12:03.148Z,15.90
2022-12-05T18:14:50.783Z,16.00
2022-12-05T18:17:38.561Z,15.35
2022-12-05T18:20:24.250Z,17.30
2022-12-05T18:23:11.949Z,22.45
2022-12-05T18:26:00.570Z,31.10
2022-12-05T18:28:48.160Z,22.27
2022-12-05T18:31:38.339Z,20.33
2022-12-05T18:34:26.173Z,19.85
2022-12-05T18:36:59.474Z,19.63
2022-12-05T18:39:28.283Z,24.70
2022-12-05T18:41:57.091Z,20.88
2022-12-05T18:44:49.300Z,17.20
2022-12-05T18:47:37.234Z,17.35
2022-12-05T18:50:27.381Z,16.92
2022-12-05T18:53:14.971Z,15.85
2022-12-05T18:56:05.221Z,16.17
2022-12-05T18:58:32.214Z,14.45
2022-12-05T19:01:05.478Z,15.45
2022-12-05T19:03:37.759Z,17.88
2022-12-05T19:06:21.548Z,31.10
2022-12-05T19:09:13.103Z,46.85
2022-12-05T19:12:01.512Z,24.23
2022-12-05T19:14:51.401Z,19.38
2022-12-05T19:17:21.923Z,22.75
2022-12-05T19:19:50.753Z,27.00
2022-12-05T19:22:21.968Z,21.20
2022-12-05T19:24:51.426Z,21.55
2022-12-05T19:27:19.870Z,22.63
2022-12-05T19:30:09.851Z,21.40
2022-12-05T19:32:58.237Z,20.42
2022-12-05T19:35:48.363Z,20.08
2022-12-05T19:38:36.280Z,22.48
2022-12-05T19:41:09.031Z,26.33
2022-12-05T19:43:40.852Z,26.10
2022-12-05T19:46:12.685Z,23.52
2022-12-05T19:48:42.275Z,21.92
2022-12-05T19:51:30.746Z,21.55
2022-12-05T19:54:14.321Z,24.92
2022-12-05T19:57:00.637Z,34.08
2022-12-05T19:59:48.281Z,33.78
2022-12-05T20:02:40.288Z,33.35
2022-12-05T20:05:29.560Z,32.03
2022-12-05T20:08:19.646Z,24.98
2022-12-05T20:11:07.565Z,25.98
2022-12-05T20:13:53.650Z,29.77
2022-12-05T20:16:27.910Z,24.10
2022-12-05T20:18:59.250Z,33.10
2022-12-05T20:21:31.366Z,28.27
2022-12-05T20:24:03.197Z,28.45
2022-12-05T20:26:38.609Z,23.10
2022-12-05T20:29:07.589Z,23.52
2022-12-05T20:31:37.536Z,21.40
2022-12-05T20:34:25.129Z,20.00
2022-12-05T20:37:12.704Z,19.65
2022-12-05T20:39:57.833Z,21.17
2022-12-05T20:42:50.488Z,22.67
2022-12-05T20:45:38.005Z,19.83
2022-12-05T20:48:26.930Z,19.40
2022-12-05T20:51:12.598Z,21.65
2022-12-05T20:53:59.949Z,23.55
2022-12-05T20:56:49.069Z,20.52
2022-12-05T20:59:36.816Z,19.13
2022-12-05T21:02:17.689Z,18.40
2022-12-05T21:05:10.018Z,17.92
2022-12-05T21:07:41.143Z,18.47
2022-12-05T21:10:28.768Z,17.77
2022-12-05T21:13:16.387Z,17.50
2022-12-05T21:16:05.325Z,18.77
2022-12-05T21:18:38.384Z,17.77
2022-12-05T21:21:09.597Z,15.77
2022-12-05T21:23:38.805Z,16.52
2022-12-05T21:26:11.856Z,17.83
2022-12-05T21:28:42.160Z,16.58
2022-12-05T21:31:24.280Z,17.65
2022-12-05T21:33:56.174Z,17.30
2022-12-05T21:36:25.495Z,16.75
2022-12-05T21:38:57.399Z,17.58
2022-12-05T21:41:26.248Z,17.70
2022-12-05T21:43:55.764Z,17.10
2022-12-05T21:46:26.562Z,18.13
2022-12-05T21:48:56.750Z,18.05
2022-12-05T21:51:46.763Z,17.65
2022-12-05T21:54:36.961Z,18.27
2022-12-05T21:57:31.985Z,18.33
2022-12-05T22:00:21.679Z,16.83
2022-12-05T22:03:14.583Z,18.35
2022-12-05T22:06:04.678Z,16.65
2022-12-05T22:08:55.046Z,18.35
2022-12-05T22:11:42.602Z,19.10
2022-12-05T22:14:28.845Z,17.48
2022-12-05T22:17:12.498Z,17.75
2022-12-05T22:19:59.831Z,17.88
2022-12-05T22:22:47.533Z,17.65
2022-12-05T22:25:35.124Z,16.90
2022-12-05T22:28:18.697Z,20.17
2022-12-05T22:31:03.785Z,19.40
2022-12-05T22:33:48.646Z,18.98
2022-12-05T22:36:36.390Z,17.65
2022-12-05T22:39:23.991Z,18.00
2022-12-05T22:42:11.440Z,16.13
2022-12-05T22:44:58.291Z,17.30
2022-12-05T22:47:45.924Z,18.17
2022-12-05T22:50:26.155Z,18.42
2022-12-05T22:53:10.655Z,17.15
2022-12-05T22:56:02.855Z,17.35
2022-12-05T22:58:53.688Z,17.20
2022-12-05T23:01:41.594Z,17.95
2022-12-05T23:04:20.177Z,18.55
2022-12-05T23:07:05.492Z,16.77
2022-12-05T23:09:51.816Z,17.85
2022-12-05T23:12:39.412Z,18.85
2022-12-05T23:15:20.127Z,16.98
2022-12-05T23:18:08.555Z,17.42
2022-12-05T23:20:38.338Z,19.38
2022-12-05T23:23:09.241Z,18.83
2022-12-05T23:25:38.372Z,16.73
2022-12-05T23:28:07.754Z,17.33
2022-12-05T23:30:41.695Z,18.52
2022-12-05T23:33:29.320Z,18.52
2022-12-05T23:36:12.080Z,18.17
2022-12-05T23:38:55.465Z,16.63
2022-12-05T23:41:36.101Z,17.73
2022-12-05T23:44:21.777Z,18.20
2022-12-05T23:47:08.826Z,18.58
2022-12-05T23:49:46.613Z,17.25
2022-12-05T23:52:18.350Z,18.85
2022-12-05T23:54:48.701Z,18.85
2022-12-05T23:57:17.952Z,18.50
2022-12-05T23:59:46.848Z,18.55
